createdAt,value
2022-12-24T00:00:09.984Z,11.20
2022-12-24T00:01:10.137Z,10.30
2022-12-24T00:02:10.339Z,11.00
2022-12-24T00:03:10.589Z,10.10
2022-12-24T00:04:10.639Z,10.20
2022-12-24T00:05:10.809Z,10.00
2022-12-24T00:06:10.948Z,10.60
2022-12-24T00:07:11.131Z,9.80
2022-12-24T00:08:11.336Z,10.50
2022-12-24T00:09:11.482Z,10.40
2022-12-24T00:10:11.622Z,10.90
2022-12-24T00:11:11.777Z,10.60
2022-12-24T00:12:11.949Z,10.10
2022-12-24T00:13:12.100Z,9.80
2022-12-24T00:14:12.300Z,10.80
2022-12-24T00:15:12.453Z,10.20
2022-12-24T00:16:12.700Z,10.30
2022-12-24T00:17:12.844Z,10.30
2022-12-24T00:18:12.951Z,9.90
2022-12-24T00:19:13.155Z,9.50
2022-12-24T00:20:13.314Z,9.20
2022-12-24T00:21:13.504Z,9.90
2022-12-24T00:22:13.689Z,10.90
2022-12-24T00:23:13.821Z,9.30
2022-12-24T00:24:14.032Z,9.40
2022-12-24T00:25:14.181Z,10.10
2022-12-24T00:26:14.365Z,9.80
2022-12-24T00:27:14.521Z,9.60
2022-12-24T00:28:14.719Z,9.90
2022-12-24T00:29:14.903Z,10.10
2022-12-24T00:30:15.055Z,9.10
2022-12-24T00:31:15.303Z,10.10
2022-12-24T00:32:15.424Z,9.90
2022-12-24T00:33:20.832Z,9.50
2022-12-24T00:34:16.785Z,9.50
2022-12-24T00:35:15.956Z,9.50
2022-12-24T00:36:16.150Z,9.40
2022-12-24T00:37:16.348Z,9.40
2022-12-24T00:38:16.496Z,8.60
2022-12-24T00:39:16.688Z,9.30
2022-12-24T00:40:16.853Z,8.90
2022-12-24T00:41:17.015Z,8.60
2022-12-24T00:42:17.193Z,9.00
2022-12-24T00:43:17.386Z,8.90
2022-12-24T00:44:17.575Z,8.70
2022-12-24T00:45:17.756Z,9.30
2022-12-24T00:46:18.054Z,8.90
2022-12-24T00:47:18.107Z,8.80
2022-12-24T00:48:18.331Z,9.20
2022-12-24T00:49:18.488Z,9.40
2022-12-24T00:50:18.643Z,8.30
2022-12-24T00:51:18.820Z,9.40
2022-12-24T00:52:18.961Z,8.70
2022-12-24T00:53:19.142Z,8.50
2022-12-24T00:54:19.328Z,8.00
2022-12-24T00:55:19.506Z,8.40
2022-12-24T00:56:19.706Z,8.00
2022-12-24T00:57:19.865Z,7.70
2022-12-24T00:58:20.046Z,7.50
2022-12-24T00:59:20.236Z,8.00
2022-12-24T01:00:20.413Z,8.20
2022-12-24T01:01:20.791Z,7.80
2022-12-24T01:02:20.887Z,7.50
2022-12-24T01:03:21.008Z,7.70
2022-12-24T01:04:21.118Z,8.20
2022-12-24T01:05:21.312Z,8.40
2022-12-24T01:06:21.516Z,7.90
2022-12-24T01:07:21.643Z,7.80
2022-12-24T01:08:21.833Z,7.60
2022-12-24T01:09:22.022Z,8.50
2022-12-24T01:10:22.288Z,7.50
2022-12-24T01:11:22.391Z,7.50
2022-12-24T01:12:22.553Z,8.50
2022-12-24T01:13:22.733Z,7.10
2022-12-24T01:14:22.923Z,7.20
2022-12-24T01:15:23.144Z,8.30
2022-12-24T01:16:23.284Z,7.30
2022-12-24T01:17:23.441Z,7.10
2022-12-24T01:18:23.604Z,7.60
2022-12-24T01:19:23.800Z,7.70
2022-12-24T01:20:24.032Z,6.90
2022-12-24T01:21:24.173Z,6.70
2022-12-24T01:22:24.348Z,7.40
2022-12-24T01:23:24.536Z,7.40
2022-12-24T01:24:24.717Z,7.60
2022-12-24T01:25:24.951Z,6.70
2022-12-24T01:26:25.059Z,8.00
2022-12-24T01:27:25.247Z,7.00
2022-12-24T01:28:25.422Z,6.70
2022-12-24T01:29:25.598Z,6.90
2022-12-24T01:30:25.796Z,7.90
2022-12-24T01:31:26.003Z,7.30
2022-12-24T01:32:26.123Z,7.40
2022-12-24T01:33:26.310Z,6.60
2022-12-24T01:34:26.481Z,7.10
2022-12-24T01:35:26.699Z,7.80
2022-12-24T01:36:26.839Z,7.60
2022-12-24T01:37:27.026Z,8.20
2022-12-24T01:38:27.208Z,7.00
2022-12-24T01:39:27.399Z,7.40
2022-12-24T01:40:27.641Z,6.80
2022-12-24T01:41:27.752Z,7.70
2022-12-24T01:42:27.939Z,6.50
2022-12-24T01:43:28.161Z,7.00
2022-12-24T01:44:33.440Z,7.30
2022-12-24T01:45:29.465Z,6.80
2022-12-24T01:46:28.718Z,7.60
2022-12-24T01:47:28.802Z,6.80
2022-12-24T01:48:28.984Z,6.40
2022-12-24T01:49:29.173Z,7.00
2022-12-24T01:50:29.342Z,6.80
2022-12-24T01:51:29.564Z,7.10
2022-12-24T01:52:29.719Z,7.00
2022-12-24T01:53:29.900Z,6.30
2022-12-24T01:54:30.075Z,7.50
2022-12-24T01:55:30.259Z,6.30
2022-12-24T01:56:30.444Z,6.40
2022-12-24T01:57:30.624Z,6.60
2022-12-24T01:58:30.797Z,6.50
2022-12-24T01:59:30.995Z,7.20
2022-12-24T02:00:31.148Z,7.00
2022-12-24T02:01:31.425Z,7.00
2022-12-24T02:02:31.824Z,6.60
2022-12-24T02:03:31.753Z,6.30
2022-12-24T02:04:31.845Z,5.90
2022-12-24T02:05:32.045Z,6.10
2022-12-24T02:06:32.222Z,6.90
2022-12-24T02:07:32.357Z,6.20
2022-12-24T02:08:32.547Z,6.80
2022-12-24T02:09:32.726Z,6.60
2022-12-24T02:10:32.909Z,7.40
2022-12-24T02:11:33.145Z,6.50
2022-12-24T02:12:33.288Z,6.30
2022-12-24T02:13:33.486Z,6.40
2022-12-24T02:14:33.649Z,6.70
2022-12-24T02:15:33.846Z,6.30
2022-12-24T02:16:34.136Z,6.70
2022-12-24T02:17:34.206Z,6.50
2022-12-24T02:18:34.387Z,6.40
2022-12-24T02:19:34.570Z,6.80
2022-12-24T02:20:34.749Z,6.20
2022-12-24T02:21:34.960Z,6.80
2022-12-24T02:22:35.092Z,6.50
2022-12-24T02:23:35.281Z,6.80
2022-12-24T02:24:35.467Z,6.60
2022-12-24T02:25:35.657Z,6.50
2022-12-24T02:26:35.842Z,6.90
2022-12-24T02:27:36.021Z,6.70
2022-12-24T02:28:36.212Z,7.00
2022-12-24T02:29:36.392Z,6.50
2022-12-24T02:30:36.581Z,6.10
2022-12-24T02:31:36.821Z,7.00
2022-12-24T02:32:36.962Z,6.80
2022-12-24T02:33:37.107Z,6.20
2022-12-24T02:34:37.283Z,6.90
2022-12-24T02:35:37.477Z,5.90
2022-12-24T02:36:37.644Z,6.60
2022-12-24T02:37:37.854Z,7.30
2022-12-24T02:38:38.024Z,6.90
2022-12-24T02:39:38.179Z,6.80
2022-12-24T02:40:38.348Z,6.20
2022-12-24T02:41:38.536Z,7.20
2022-12-24T02:42:38.720Z,6.40
2022-12-24T02:43:38.915Z,7.10
2022-12-24T02:44:39.058Z,6.50
2022-12-24T02:45:39.260Z,6.70
2022-12-24T02:46:39.459Z,6.50
2022-12-24T02:47:39.623Z,7.20
2022-12-24T02:48:39.816Z,6.60
2022-12-24T02:49:40.034Z,6.50
2022-12-24T02:50:40.145Z,7.60
2022-12-24T02:51:40.336Z,6.90
2022-12-24T02:52:40.508Z,6.40
2022-12-24T02:53:40.717Z,6.80
2022-12-24T02:54:40.868Z,6.70
2022-12-24T02:55:41.037Z,6.70
2022-12-24T02:56:41.179Z,7.30
2022-12-24T02:57:41.366Z,6.70
2022-12-24T02:58:41.539Z,6.90
2022-12-24T02:59:41.739Z,7.10
2022-12-24T03:00:41.915Z,7.20
2022-12-24T03:01:42.253Z,7.00
2022-12-24T03:02:42.409Z,6.70
2022-12-24T03:03:42.449Z,6.90
2022-12-24T03:04:42.628Z,7.00
2022-12-24T03:05:42.789Z,7.70
2022-12-24T03:06:42.980Z,7.30
2022-12-24T03:07:43.159Z,6.40
2022-12-24T03:08:43.332Z,8.10
2022-12-24T03:09:43.535Z,6.70
2022-12-24T03:10:43.687Z,8.00
2022-12-24T03:11:43.864Z,7.20
2022-12-24T03:12:44.063Z,7.40
2022-12-24T03:13:44.212Z,7.50
2022-12-24T03:14:44.413Z,7.80
2022-12-24T03:15:44.575Z,8.30
2022-12-24T03:16:44.796Z,6.90
2022-12-24T03:17:44.925Z,6.60
2022-12-24T03:18:45.098Z,8.20
2022-12-24T03:19:45.303Z,7.90
2022-12-24T03:20:45.449Z,7.40
2022-12-24T03:21:45.639Z,6.90
2022-12-24T03:22:45.820Z,7.30
2022-12-24T03:23:46.006Z,7.60
2022-12-24T03:24:46.189Z,7.90
2022-12-24T03:25:46.376Z,8.30
2022-12-24T03:26:46.510Z,7.90
2022-12-24T03:27:46.691Z,8.00
2022-12-24T03:28:46.865Z,7.30
2022-12-24T03:29:47.073Z,8.20
2022-12-24T03:30:47.283Z,10.30
2022-12-24T03:31:47.457Z,8.00
2022-12-24T03:32:47.569Z,8.20
2022-12-24T03:33:47.773Z,8.30
2022-12-24T03:34:47.939Z,7.60
2022-12-24T03:35:48.139Z,7.60
2022-12-24T03:36:48.289Z,8.00
2022-12-24T03:37:48.462Z,8.60
2022-12-24T03:38:48.645Z,7.60
2022-12-24T03:39:48.863Z,7.90
2022-12-24T03:40:48.988Z,7.80
2022-12-24T03:41:49.179Z,7.80
2022-12-24T03:42:49.375Z,7.90
2022-12-24T03:43:49.549Z,8.20
2022-12-24T03:44:49.750Z,7.60
2022-12-24T03:45:49.941Z,7.90
2022-12-24T03:46:50.068Z,7.90
2022-12-24T03:47:50.258Z,7.70
2022-12-24T03:48:50.428Z,8.40
2022-12-24T03:49:50.628Z,8.10
2022-12-24T03:50:50.766Z,8.10
2022-12-24T03:51:50.968Z,8.10
2022-12-24T03:52:51.143Z,8.80
2022-12-24T03:53:51.332Z,8.60
2022-12-24T03:54:51.531Z,8.20
2022-12-24T03:55:51.702Z,8.50
2022-12-24T03:56:51.845Z,8.60
2022-12-24T03:57:52.047Z,7.80
2022-12-24T03:58:52.212Z,8.80
2022-12-24T03:59:52.439Z,7.50
2022-12-24T04:00:52.677Z,9.00
2022-12-24T04:01:52.903Z,8.70
2022-12-24T04:02:53.075Z,8.60
2022-12-24T04:03:53.094Z,8.90
2022-12-24T04:04:53.306Z,8.10
2022-12-24T04:05:53.457Z,8.90
2022-12-24T04:06:53.625Z,9.20
2022-12-24T04:07:53.825Z,8.80
2022-12-24T04:08:54.013Z,8.90
2022-12-24T04:09:54.208Z,8.30
2022-12-24T04:10:54.345Z,8.60
2022-12-24T04:11:54.546Z,8.60
2022-12-24T04:12:54.721Z,8.20
2022-12-24T04:13:54.912Z,8.30
2022-12-24T04:14:55.106Z,8.30
2022-12-24T04:15:55.273Z,8.40
2022-12-24T04:16:55.498Z,8.50
2022-12-24T04:17:55.601Z,8.50
2022-12-24T04:18:55.778Z,9.00
2022-12-24T04:19:55.979Z,8.50
2022-12-24T04:20:56.118Z,8.40
2022-12-24T04:21:56.312Z,8.30
2022-12-24T04:22:56.488Z,8.60
2022-12-24T04:23:56.668Z,9.10
2022-12-24T04:24:56.870Z,8.50
2022-12-24T04:25:57.030Z,8.40
2022-12-24T04:26:57.209Z,8.30
2022-12-24T04:27:57.362Z,8.70
2022-12-24T04:28:57.541Z,9.00
2022-12-24T04:29:57.753Z,8.60
2022-12-24T04:30:57.905Z,8.50
2022-12-24T04:31:58.169Z,9.30
2022-12-24T04:32:58.267Z,9.00
2022-12-24T04:33:58.445Z,8.90
2022-12-24T04:34:58.643Z,9.00
2022-12-24T04:35:58.792Z,9.00
2022-12-24T04:36:58.967Z,7.90
2022-12-24T04:37:59.114Z,9.40
2022-12-24T04:38:59.256Z,9.70
2022-12-24T04:39:59.446Z,8.70
2022-12-24T04:40:59.647Z,8.20
2022-12-24T04:41:59.795Z,9.20
2022-12-24T04:42:59.984Z,8.80
2022-12-24T04:44:00.167Z,8.90
2022-12-24T04:45:00.354Z,8.80
2022-12-24T04:46:00.589Z,9.10
2022-12-24T04:47:00.694Z,9.40
2022-12-24T04:48:00.908Z,9.40
2022-12-24T04:49:01.088Z,8.80
2022-12-24T04:50:01.242Z,8.80
2022-12-24T04:51:01.428Z,9.80
2022-12-24T04:52:01.610Z,9.20
2022-12-24T04:53:01.803Z,9.60
2022-12-24T04:54:01.984Z,9.90
2022-12-24T04:55:02.157Z,9.80
2022-12-24T04:56:02.347Z,10.00
2022-12-24T04:57:02.517Z,9.20
2022-12-24T04:58:02.658Z,10.20
2022-12-24T04:59:02.831Z,9.60
2022-12-24T05:00:10.018Z,10.70
2022-12-24T05:01:03.227Z,10.10
2022-12-24T05:02:03.537Z,10.10
2022-12-24T05:03:03.552Z,9.80
2022-12-24T05:04:03.713Z,9.40
2022-12-24T05:05:03.889Z,10.60
2022-12-24T05:06:04.088Z,10.20
2022-12-24T05:07:04.234Z,10.80
2022-12-24T05:08:04.390Z,11.40
2022-12-24T05:09:04.543Z,9.60
2022-12-24T05:10:04.753Z,10.30
2022-12-24T05:11:04.906Z,10.30
2022-12-24T05:12:05.061Z,9.70
2022-12-24T05:13:05.272Z,9.30
2022-12-24T05:14:05.406Z,10.10
2022-12-24T05:15:05.574Z,9.90
2022-12-24T05:16:05.735Z,9.70
2022-12-24T05:17:05.979Z,10.10
2022-12-24T05:18:06.080Z,10.50
2022-12-24T05:19:06.282Z,10.50
2022-12-24T05:20:06.438Z,10.20
2022-12-24T05:21:06.603Z,10.60
2022-12-24T05:22:06.768Z,8.10
2022-12-24T05:23:06.952Z,9.70
2022-12-24T05:24:07.141Z,9.90
2022-12-24T05:25:07.334Z,8.80
2022-12-24T05:26:07.525Z,9.20
2022-12-24T05:27:07.664Z,9.10
2022-12-24T05:28:07.872Z,8.80
2022-12-24T05:29:08.030Z,10.10
2022-12-24T05:30:08.170Z,10.10
2022-12-24T05:31:08.408Z,9.10
2022-12-24T05:32:08.501Z,11.50
2022-12-24T05:33:08.680Z,10.20
2022-12-24T05:34:08.839Z,11.20
2022-12-24T05:35:08.998Z,10.10
2022-12-24T05:36:09.163Z,11.30
2022-12-24T05:37:09.320Z,11.10
2022-12-24T05:38:09.481Z,10.30
2022-12-24T05:39:15.124Z,9.90
2022-12-24T05:40:10.802Z,10.40
2022-12-24T05:41:10.007Z,9.80
2022-12-24T05:42:10.145Z,9.60
2022-12-24T05:43:10.367Z,10.40
2022-12-24T05:44:10.516Z,10.90
2022-12-24T05:45:10.673Z,10.80
2022-12-24T05:46:10.945Z,10.70
2022-12-24T05:47:11.036Z,11.50
2022-12-24T05:48:11.184Z,10.70
2022-12-24T05:49:11.359Z,12.30
2022-12-24T05:50:11.530Z,11.40
2022-12-24T05:51:11.702Z,11.30
2022-12-24T05:52:11.845Z,12.40
2022-12-24T05:53:12.028Z,10.90
2022-12-24T05:54:12.186Z,12.40
2022-12-24T05:55:12.335Z,12.20
2022-12-24T05:56:12.510Z,10.80
2022-12-24T05:57:12.670Z,10.90
2022-12-24T05:58:12.869Z,10.90
2022-12-24T05:59:13.039Z,10.80
2022-12-24T06:00:13.188Z,11.20
2022-12-24T06:01:13.456Z,11.10
2022-12-24T06:02:13.579Z,10.80
2022-12-24T06:03:13.720Z,10.40
2022-12-24T06:04:13.888Z,12.00
2022-12-24T06:05:14.132Z,11.70
2022-12-24T06:06:14.220Z,10.80
2022-12-24T06:07:14.407Z,11.70
2022-12-24T06:08:14.575Z,12.20
2022-12-24T06:09:14.744Z,11.20
2022-12-24T06:10:14.895Z,10.60
2022-12-24T06:11:15.059Z,11.30
2022-12-24T06:12:15.216Z,11.00
2022-12-24T06:13:15.399Z,9.80
2022-12-24T06:14:15.544Z,11.00
2022-12-24T06:15:21.946Z,12.10
2022-12-24T06:16:17.068Z,12.90
2022-12-24T06:17:16.106Z,11.50
2022-12-24T06:18:16.264Z,10.30
2022-12-24T06:19:16.419Z,10.80
2022-12-24T06:20:16.577Z,11.90
2022-12-24T06:21:16.748Z,12.60
2022-12-24T06:22:16.922Z,11.40
2022-12-24T06:23:17.140Z,11.40
2022-12-24T06:24:17.284Z,12.40
2022-12-24T06:25:17.444Z,11.20
2022-12-24T06:26:17.641Z,12.50
2022-12-24T06:27:17.799Z,12.50
2022-12-24T06:28:17.987Z,11.60
2022-12-24T06:29:18.143Z,11.40
2022-12-24T06:30:18.772Z,11.80
2022-12-24T06:31:18.485Z,12.40
2022-12-24T06:32:18.635Z,11.60
2022-12-24T06:33:18.839Z,11.70
2022-12-24T06:34:18.971Z,10.60
2022-12-24T06:35:19.156Z,12.10
2022-12-24T06:36:19.312Z,12.60
2022-12-24T06:37:19.508Z,11.40
2022-12-24T06:38:19.678Z,12.00
2022-12-24T06:39:19.837Z,12.40
2022-12-24T06:40:20.022Z,12.70
2022-12-24T06:41:20.160Z,12.50
2022-12-24T06:42:20.313Z,11.90
2022-12-24T06:43:20.498Z,12.00
2022-12-24T06:44:20.653Z,12.80
2022-12-24T06:45:20.835Z,12.80
2022-12-24T06:46:21.036Z,11.90
2022-12-24T06:47:21.156Z,12.70
2022-12-24T06:48:21.311Z,11.50
2022-12-24T06:49:21.494Z,12.60
2022-12-24T06:50:21.696Z,12.00
2022-12-24T06:51:21.825Z,12.40
2022-12-24T06:52:22.005Z,12.20
2022-12-24T06:53:22.172Z,12.30
2022-12-24T06:54:22.332Z,12.20
2022-12-24T06:55:22.511Z,12.10
2022-12-24T06:56:22.664Z,13.10
2022-12-24T06:57:22.833Z,12.70
2022-12-24T06:58:22.989Z,12.20
2022-12-24T06:59:23.181Z,13.00
2022-12-24T07:00:23.359Z,12.30
2022-12-24T07:01:23.576Z,12.30
2022-12-24T07:02:23.721Z,14.20
2022-12-24T07:03:23.901Z,12.00
2022-12-24T07:04:24.109Z,13.60
2022-12-24T07:05:24.210Z,11.80
2022-12-24T07:06:24.413Z,11.30
2022-12-24T07:07:24.581Z,11.50
2022-12-24T07:08:24.711Z,12.00
2022-12-24T07:09:24.881Z,11.60
2022-12-24T07:10:25.044Z,11.90
2022-12-24T07:11:25.244Z,12.30
2022-12-24T07:12:25.403Z,13.70
2022-12-24T07:13:25.575Z,12.20
2022-12-24T07:14:25.730Z,13.20
2022-12-24T07:15:25.887Z,11.70
2022-12-24T07:16:26.152Z,12.10
2022-12-24T07:17:26.363Z,11.90
2022-12-24T07:18:26.377Z,13.00
2022-12-24T07:19:26.567Z,13.00
2022-12-24T07:20:26.727Z,12.50
2022-12-24T07:21:26.923Z,13.70
2022-12-24T07:22:27.072Z,14.00
2022-12-24T07:23:27.238Z,13.00
2022-12-24T07:24:27.388Z,12.20
2022-12-24T07:25:27.547Z,13.30
2022-12-24T07:26:27.745Z,14.80
2022-12-24T07:27:27.908Z,12.70
2022-12-24T07:28:28.453Z,13.70
2022-12-24T07:29:28.267Z,12.40
2022-12-24T07:30:28.442Z,13.60
2022-12-24T07:31:28.688Z,13.30
2022-12-24T07:32:28.785Z,13.20
2022-12-24T07:33:28.976Z,12.60
2022-12-24T07:34:29.143Z,13.20
2022-12-24T07:35:29.332Z,13.40
2022-12-24T07:36:29.525Z,12.60
2022-12-24T07:37:29.681Z,14.30
2022-12-24T07:38:29.826Z,14.60
2022-12-24T07:39:30.000Z,13.50
2022-12-24T07:40:30.183Z,14.40
2022-12-24T07:41:31.289Z,14.40
2022-12-24T07:42:30.513Z,12.70
2022-12-24T07:43:30.704Z,13.40
2022-12-24T07:44:30.860Z,13.30
2022-12-24T07:45:31.039Z,14.00
2022-12-24T07:46:31.232Z,15.00
2022-12-24T07:47:31.385Z,13.50
2022-12-24T07:48:31.570Z,14.40
2022-12-24T07:49:31.738Z,12.60
2022-12-24T07:50:31.910Z,13.10
2022-12-24T07:51:32.139Z,13.40
2022-12-24T07:52:32.248Z,12.90
2022-12-24T07:53:32.433Z,12.10
2022-12-24T07:54:32.724Z,13.10
2022-12-24T07:55:32.772Z,13.80
2022-12-24T07:56:32.988Z,13.00
2022-12-24T07:57:33.124Z,13.10
2022-12-24T07:58:33.293Z,13.30
2022-12-24T07:59:33.473Z,12.60
2022-12-24T08:00:33.645Z,13.50
2022-12-24T08:01:33.934Z,13.60
2022-12-24T08:02:34.149Z,14.70
2022-12-24T08:03:34.344Z,12.60
2022-12-24T08:04:34.358Z,13.30
2022-12-24T08:05:34.549Z,13.90
2022-12-24T08:06:34.735Z,13.70
2022-12-24T08:07:34.913Z,12.40
2022-12-24T08:08:35.083Z,12.80
2022-12-24T08:09:35.275Z,13.10
2022-12-24T08:10:35.444Z,13.70
2022-12-24T08:11:35.620Z,13.50
2022-12-24T08:12:35.795Z,13.90
2022-12-24T08:13:35.974Z,13.80
2022-12-24T08:14:36.174Z,13.80
2022-12-24T08:15:36.319Z,13.80
2022-12-24T08:16:36.528Z,6.80
2022-12-24T08:17:36.687Z,7.20
2022-12-24T08:18:36.841Z,6.70
2022-12-24T08:19:37.017Z,6.40
2022-12-24T08:20:37.198Z,8.10
2022-12-24T08:21:37.382Z,8.80
2022-12-24T08:22:37.539Z,8.60
2022-12-24T08:23:37.727Z,8.30
2022-12-24T08:24:37.899Z,8.70
2022-12-24T08:25:38.065Z,12.00
2022-12-24T08:26:38.244Z,10.50
2022-12-24T08:27:38.403Z,11.90
2022-12-24T08:28:38.567Z,11.70
2022-12-24T08:29:38.738Z,11.40
2022-12-24T08:30:38.899Z,11.10
2022-12-24T08:31:39.117Z,11.80
2022-12-24T08:32:39.238Z,11.60
2022-12-24T08:33:39.419Z,12.30
2022-12-24T08:34:39.637Z,12.90
2022-12-24T08:35:39.786Z,12.40
2022-12-24T08:36:39.952Z,12.60
2022-12-24T08:37:40.134Z,12.90
2022-12-24T08:38:40.295Z,10.50
2022-12-24T08:39:40.548Z,9.40
2022-12-24T08:40:40.678Z,9.60
2022-12-24T08:41:40.830Z,10.40
2022-12-24T08:42:41.099Z,9.70
2022-12-24T08:43:41.192Z,11.20
2022-12-24T08:44:41.389Z,8.70
2022-12-24T08:45:41.618Z,9.30
2022-12-24T08:46:41.805Z,8.20
2022-12-24T08:47:41.847Z,8.50
2022-12-24T08:48:41.993Z,10.50
2022-12-24T08:49:42.213Z,10.90
2022-12-24T08:50:42.395Z,9.20
2022-12-24T08:51:42.544Z,8.50
2022-12-24T08:52:42.707Z,9.60
2022-12-24T08:53:42.869Z,9.30
2022-12-24T08:54:43.052Z,10.60
2022-12-24T08:55:43.201Z,10.20
2022-12-24T08:56:43.386Z,9.70
2022-12-24T08:57:43.545Z,10.10
2022-12-24T08:58:43.724Z,10.20
2022-12-24T08:59:43.911Z,10.10
2022-12-24T09:00:44.122Z,9.70
2022-12-24T09:01:44.448Z,9.50
2022-12-24T09:02:44.528Z,10.00
2022-12-24T09:03:44.750Z,10.40
2022-12-24T09:04:44.831Z,10.30
2022-12-24T09:05:44.979Z,10.50
2022-12-24T09:06:45.157Z,10.40
2022-12-24T09:07:45.337Z,16.70
2022-12-24T09:08:45.512Z,15.40
2022-12-24T09:09:45.678Z,14.70
2022-12-24T09:10:45.829Z,15.90
2022-12-24T09:11:46.008Z,15.50
2022-12-24T09:12:46.163Z,14.80
2022-12-24T09:13:46.320Z,14.40
2022-12-24T09:14:46.539Z,13.70
2022-12-24T09:15:46.675Z,15.90
2022-12-24T09:16:46.911Z,15.80
2022-12-24T09:17:47.042Z,13.70
2022-12-24T09:18:47.231Z,13.10
2022-12-24T09:19:47.487Z,14.40
2022-12-24T09:20:49.349Z,13.00
2022-12-24T09:21:47.772Z,12.50
2022-12-24T09:22:47.959Z,11.30
2022-12-24T09:23:48.136Z,13.20
2022-12-24T09:24:48.477Z,10.40
2022-12-24T09:25:48.494Z,9.80
2022-12-24T09:26:53.865Z,12.20
2022-12-24T09:27:49.897Z,11.00
2022-12-24T09:28:49.043Z,9.60
2022-12-24T09:29:49.202Z,11.20
2022-12-24T09:30:49.403Z,10.50
2022-12-24T09:31:49.640Z,11.10
2022-12-24T09:32:49.764Z,10.00
2022-12-24T09:33:49.911Z,8.80
2022-12-24T09:34:50.066Z,9.00
2022-12-24T09:35:50.277Z,8.20
2022-12-24T09:36:50.416Z,8.50
2022-12-24T09:37:50.576Z,8.10
2022-12-24T09:38:50.755Z,7.50
2022-12-24T09:39:50.908Z,8.20
2022-12-24T09:40:51.090Z,8.30
2022-12-24T09:41:51.245Z,8.00
2022-12-24T09:42:51.396Z,8.90
2022-12-24T09:43:51.584Z,7.60
2022-12-24T09:44:51.736Z,7.90
2022-12-24T09:45:51.955Z,7.70
2022-12-24T09:46:52.131Z,7.30
2022-12-24T09:47:52.325Z,7.60
2022-12-24T09:48:52.496Z,7.70
2022-12-24T09:49:52.689Z,8.40
2022-12-24T09:50:52.834Z,7.50
2022-12-24T09:51:52.976Z,7.90
2022-12-24T09:52:53.128Z,7.60
2022-12-24T09:53:53.299Z,8.00
2022-12-24T09:54:53.514Z,6.80
2022-12-24T09:55:53.631Z,7.70
2022-12-24T09:56:53.834Z,7.30
2022-12-24T09:57:53.998Z,7.90
2022-12-24T09:58:54.161Z,7.40
2022-12-24T09:59:54.345Z,7.80
2022-12-24T10:00:54.492Z,7.80
2022-12-24T10:01:54.819Z,7.60
2022-12-24T10:02:54.883Z,7.80
2022-12-24T10:03:55.107Z,6.70
2022-12-24T10:04:55.211Z,7.20
2022-12-24T10:05:55.356Z,8.90
2022-12-24T10:06:55.524Z,7.10
2022-12-24T10:07:55.685Z,6.70
2022-12-24T10:08:55.854Z,6.60
2022-12-24T10:09:56.067Z,6.70
2022-12-24T10:10:56.195Z,6.40
2022-12-24T10:11:56.366Z,6.20
2022-12-24T10:12:56.525Z,6.20
2022-12-24T10:13:56.728Z,6.50
2022-12-24T10:14:56.875Z,6.60
2022-12-24T10:15:57.047Z,6.70
2022-12-24T10:16:57.239Z,7.60
2022-12-24T10:17:57.383Z,7.70
2022-12-24T10:18:57.549Z,6.80
2022-12-24T10:19:57.740Z,7.50
2022-12-24T10:20:57.865Z,7.70
2022-12-24T10:21:58.043Z,7.30
2022-12-24T10:22:58.185Z,6.60
2022-12-24T10:23:58.358Z,7.10
2022-12-24T10:24:58.541Z,6.70
2022-12-24T10:25:58.746Z,4.70
2022-12-24T10:26:58.878Z,6.30
2022-12-24T10:27:59.050Z,4.10
2022-12-24T10:28:59.215Z,4.20
2022-12-24T10:29:59.390Z,4.10
2022-12-24T10:30:59.599Z,5.60
2022-12-24T10:31:59.730Z,3.30
2022-12-24T10:32:59.887Z,4.90
2022-12-24T10:34:00.049Z,4.90
2022-12-24T10:35:00.214Z,5.20
2022-12-24T10:36:00.373Z,4.10
2022-12-24T10:37:00.574Z,4.30
2022-12-24T10:38:00.709Z,5.00
2022-12-24T10:39:00.859Z,4.60
2022-12-24T10:40:01.082Z,4.70
2022-12-24T10:41:01.216Z,4.40
2022-12-24T10:42:01.409Z,5.10
2022-12-24T10:43:01.571Z,5.50
2022-12-24T10:44:01.753Z,4.80
2022-12-24T10:45:01.898Z,5.50
2022-12-24T10:46:02.127Z,4.90
2022-12-24T10:47:02.243Z,5.20
2022-12-24T10:48:02.421Z,5.00
2022-12-24T10:49:02.565Z,4.20
2022-12-24T10:50:02.727Z,5.60
2022-12-24T10:51:02.890Z,7.00
2022-12-24T10:52:03.084Z,5.50
2022-12-24T10:53:03.216Z,4.60
2022-12-24T10:54:03.396Z,4.70
2022-12-24T10:55:03.565Z,4.70
2022-12-24T10:56:03.725Z,5.40
2022-12-24T10:57:03.915Z,4.70
2022-12-24T10:58:04.132Z,5.80
2022-12-24T10:59:04.243Z,5.40
2022-12-24T11:00:04.402Z,4.30
2022-12-24T11:01:11.653Z,5.00
2022-12-24T11:02:04.956Z,5.70
2022-12-24T11:03:05.024Z,4.70
2022-12-24T11:04:05.074Z,5.40
2022-12-24T11:05:05.242Z,5.20
2022-12-24T11:06:05.396Z,4.70
2022-12-24T11:07:05.653Z,6.10
2022-12-24T11:08:05.783Z,5.00
2022-12-24T11:09:05.934Z,5.90
2022-12-24T11:10:06.118Z,5.00
2022-12-24T11:11:06.275Z,5.40
2022-12-24T11:12:09.255Z,5.80
2022-12-24T11:13:36.412Z,5.40
2022-12-24T11:14:07.788Z,6.80
2022-12-24T11:15:06.967Z,5.40
2022-12-24T11:16:07.180Z,5.30
2022-12-24T11:17:07.365Z,4.70
2022-12-24T11:18:07.486Z,5.20
2022-12-24T11:19:07.830Z,5.60
2022-12-24T11:20:07.858Z,5.50
2022-12-24T11:21:08.048Z,5.70
2022-12-24T11:22:08.187Z,5.50
2022-12-24T11:23:08.359Z,5.60
2022-12-24T11:24:08.525Z,7.00
2022-12-24T11:25:08.686Z,7.20
2022-12-24T11:26:08.876Z,6.10
2022-12-24T11:27:09.048Z,5.90
2022-12-24T11:28:09.221Z,5.00
2022-12-24T11:29:09.387Z,6.10
2022-12-24T11:30:11.855Z,4.70
2022-12-24T11:31:09.818Z,4.80
2022-12-24T11:32:09.944Z,5.70
2022-12-24T11:33:10.108Z,7.30
2022-12-24T11:34:10.267Z,6.60
2022-12-24T11:35:10.500Z,6.90
2022-12-24T11:36:10.647Z,7.80
2022-12-24T11:37:14.865Z,5.60
2022-12-24T11:38:10.962Z,7.60
2022-12-24T11:39:11.142Z,6.30
2022-12-24T11:40:11.299Z,6.30
2022-12-24T11:41:11.745Z,4.80
2022-12-24T11:42:11.652Z,6.50
2022-12-24T11:43:14.831Z,6.00
2022-12-24T11:44:12.018Z,6.30
2022-12-24T11:45:12.173Z,6.60
2022-12-24T11:46:12.388Z,7.10
2022-12-24T11:47:12.559Z,7.60
2022-12-24T11:48:12.676Z,6.90
2022-12-24T11:49:12.878Z,7.80
2022-12-24T11:50:18.529Z,7.30
2022-12-24T11:51:14.191Z,8.90
2022-12-24T11:52:13.356Z,8.00
2022-12-24T11:53:13.516Z,8.50
2022-12-24T11:54:13.707Z,8.50
2022-12-24T11:55:16.173Z,9.80
2022-12-24T11:56:14.012Z,7.80
2022-12-24T11:57:14.210Z,7.90
2022-12-24T11:58:14.375Z,9.30
2022-12-24T11:59:14.559Z,8.80
2022-12-24T12:00:14.689Z,12.20
2022-12-24T12:01:16.029Z,9.10
2022-12-24T12:02:15.122Z,11.10
2022-12-24T12:03:15.249Z,9.30
2022-12-24T12:04:15.457Z,8.60
2022-12-24T12:05:15.576Z,10.40
2022-12-24T12:06:15.746Z,10.90
2022-12-24T12:07:15.981Z,10.60
2022-12-24T12:08:16.105Z,9.10
2022-12-24T12:09:16.317Z,10.20
2022-12-24T12:10:16.516Z,9.50
2022-12-24T12:11:16.662Z,10.10
2022-12-24T12:12:16.846Z,9.60
2022-12-24T12:13:17.033Z,11.30
2022-12-24T12:14:17.196Z,11.10
2022-12-24T12:15:17.375Z,12.10
2022-12-24T12:16:17.610Z,10.60
2022-12-24T12:17:17.721Z,10.70
2022-12-24T12:18:17.899Z,10.20
2022-12-24T12:19:18.077Z,9.00
2022-12-24T12:20:18.242Z,10.60
2022-12-24T12:21:18.411Z,9.90
2022-12-24T12:22:18.573Z,10.10
2022-12-24T12:23:18.722Z,13.70
2022-12-24T12:24:18.894Z,12.00
2022-12-24T12:25:19.064Z,14.10
2022-12-24T12:26:19.246Z,8.40
2022-12-24T12:27:19.466Z,5.60
2022-12-24T12:28:19.588Z,7.90
2022-12-24T12:29:19.782Z,9.10
2022-12-24T12:30:19.940Z,9.10
2022-12-24T12:31:20.126Z,7.80
2022-12-24T12:32:20.300Z,6.70
2022-12-24T12:33:20.581Z,7.70
2022-12-24T12:34:20.639Z,8.30
2022-12-24T12:35:20.828Z,10.10
2022-12-24T12:36:21.000Z,9.80
2022-12-24T12:37:21.168Z,10.30
2022-12-24T12:38:21.346Z,10.10
2022-12-24T12:39:21.530Z,8.90
2022-12-24T12:40:21.683Z,8.50
2022-12-24T12:41:21.855Z,9.70
2022-12-24T12:42:22.018Z,11.90
2022-12-24T12:43:22.199Z,18.20
2022-12-24T12:44:22.383Z,18.00
2022-12-24T12:45:22.579Z,24.70
2022-12-24T12:46:22.766Z,29.00
2022-12-24T12:47:22.941Z,37.20
2022-12-24T12:48:23.067Z,38.10
2022-12-24T12:49:23.258Z,38.00
2022-12-24T12:50:23.411Z,34.00
2022-12-24T12:51:23.642Z,30.20
2022-12-24T12:52:23.748Z,29.40
2022-12-24T12:53:23.898Z,27.10
2022-12-24T12:54:24.117Z,29.00
2022-12-24T12:55:25.067Z,33.60
2022-12-24T12:56:24.401Z,31.20
2022-12-24T12:57:24.599Z,32.00
2022-12-24T12:58:24.753Z,33.60
2022-12-24T12:59:24.932Z,29.40
2022-12-24T13:00:25.128Z,34.60
2022-12-24T13:01:32.284Z,27.20
2022-12-24T13:02:26.609Z,27.20
2022-12-24T13:03:25.635Z,24.50
2022-12-24T13:04:25.767Z,24.10
2022-12-24T13:05:25.938Z,21.10
2022-12-24T13:06:26.117Z,26.10
2022-12-24T13:07:26.297Z,27.10
2022-12-24T13:08:26.468Z,26.50
2022-12-24T13:09:26.656Z,23.20
2022-12-24T13:10:26.810Z,23.70